createdAt,value
2022-09-23T00:00:17.006Z,99798.41
2022-09-23T00:00:49.270Z,99804.59
2022-09-23T00:01:21.490Z,99798.13
2022-09-23T00:01:57.175Z,99794.34
2022-09-23T00:02:29.455Z,99801.63
2022-09-23T00:03:01.602Z,99795.44
2022-09-23T00:03:38.314Z,99794.63
2022-09-23T00:04:10.504Z,99796.53
2022-09-23T00:04:43.018Z,99792.72
2022-09-23T00:05:18.092Z,99795.44
2022-09-23T00:05:58.829Z,99800.28
2022-09-23T00:06:30.963Z,99803.22
2022-09-23T00:07:05.647Z,99799.47
2022-09-23T00:07:38.600Z,99797.31
2022-09-23T00:08:12.352Z,99798.41
2022-09-23T00:08:47.638Z,99791.41
2022-09-23T00:09:19.723Z,99791.41
2022-09-23T00:09:51.969Z,99795.72
2022-09-23T00:10:28.047Z,99805.41
2022-09-23T00:11:05.808Z,99794.09
2022-09-23T00:11:38.450Z,99794.34
2022-09-23T00:12:13.255Z,99794.34
2022-09-23T00:12:45.358Z,99787.88
2022-09-23T00:13:17.470Z,99797.88
2022-09-23T00:13:53.022Z,99785.50
2022-09-23T00:14:30.391Z,99787.63
2022-09-23T00:15:02.527Z,99792.47
2022-09-23T00:15:38.909Z,99783.59
2022-09-23T00:16:16.148Z,99788.16
2022-09-23T00:16:48.365Z,99789.22
2022-09-23T00:17:20.483Z,99791.91
2022-09-23T00:17:56.021Z,99781.97
2022-09-23T00:18:28.115Z,99791.66
2022-09-23T00:19:01.149Z,99795.16
2022-09-23T00:19:35.844Z,99789.78
2022-09-23T00:20:09.595Z,99783.34
2022-09-23T00:20:41.834Z,99786.03
2022-09-23T00:21:14.857Z,99784.16
2022-09-23T00:21:49.583Z,99787.09
2022-09-23T00:22:21.893Z,99784.94
2022-09-23T00:22:53.985Z,99784.94
2022-09-23T00:23:28.663Z,99781.44
2022-09-23T00:24:01.136Z,99786.81
2022-09-23T00:24:36.182Z,99785.72
2022-09-23T00:25:09.676Z,99775.25
2022-09-23T00:25:41.815Z,99783.31
2022-09-23T00:26:19.827Z,99782.50
2022-09-23T00:26:51.988Z,99774.69
2022-09-23T00:27:24.171Z,99781.19
2022-09-23T00:27:59.236Z,99776.31
2022-09-23T00:28:32.048Z,99776.31
2022-09-23T00:29:04.493Z,99785.72
2022-09-23T00:29:41.862Z,99781.16
2022-09-23T00:30:13.994Z,99778.47
2022-09-23T00:30:46.146Z,99794.34
2022-09-23T00:31:23.845Z,99782.78
2022-09-23T00:31:56.081Z,99774.19
2022-09-23T00:32:28.220Z,99778.75
2022-09-23T00:33:02.883Z,99778.19
2022-09-23T00:33:34.975Z,99781.19
2022-09-23T00:34:07.068Z,99775.00
2022-09-23T00:34:41.922Z,99765.56
2022-09-23T00:35:14.002Z,99774.69
2022-09-23T00:35:46.118Z,99780.06
2022-09-23T00:36:18.310Z,99776.31
2022-09-23T00:36:53.027Z,99779.56
2022-09-23T00:37:25.432Z,99781.44
2022-09-23T00:37:57.527Z,99777.69
2022-09-23T00:38:34.107Z,99775.50
2022-09-23T00:39:06.725Z,99774.69
2022-09-23T00:39:38.955Z,99776.31
2022-09-23T00:40:14.152Z,99780.63
2022-09-23T00:40:46.996Z,99777.94
2022-09-23T00:41:19.175Z,99779.28
2022-09-23T00:41:54.303Z,99773.91
2022-09-23T00:42:26.543Z,99780.91
2022-09-23T00:42:58.684Z,99772.84
2022-09-23T00:43:39.178Z,99769.34
2022-09-23T00:44:44.453Z,99773.09
2022-09-23T00:45:19.762Z,99778.50
2022-09-23T00:45:51.934Z,99772.81
2022-09-23T00:46:31.664Z,99771.50
2022-09-23T00:47:04.268Z,99765.31
2022-09-23T00:47:44.661Z,99772.56
2022-09-23T00:48:20.291Z,99776.31
2022-09-23T00:48:57.697Z,99774.72
2022-09-23T00:49:33.416Z,99772.56
2022-09-23T00:50:10.251Z,99777.41
2022-09-23T00:50:46.078Z,99766.66
2022-09-23T00:51:25.018Z,99769.34
2022-09-23T00:52:02.789Z,99770.16
2022-09-23T00:52:35.535Z,99771.22
2022-09-23T00:53:15.085Z,99761.28
2022-09-23T00:53:50.526Z,99773.38
2022-09-23T00:54:29.344Z,99765.31
2022-09-23T00:55:03.917Z,99764.22
2022-09-23T00:55:40.306Z,99761.81
2022-09-23T00:56:16.831Z,99766.91
2022-09-23T00:56:48.974Z,99766.66
2022-09-23T00:57:21.744Z,99769.91
2022-09-23T00:57:59.738Z,99765.03
2022-09-23T00:58:34.366Z,99764.22
2022-09-23T00:59:08.077Z,99766.91
2022-09-23T00:59:43.292Z,99766.91
2022-09-23T01:00:15.519Z,99766.09
2022-09-23T01:00:50.357Z,99771.50
2022-09-23T01:01:27.784Z,99768.78
2022-09-23T01:02:02.264Z,99770.69
2022-09-23T01:02:35.325Z,99766.09
2022-09-23T01:03:12.123Z,99762.34
2022-09-23T01:03:46.050Z,99763.16
2022-09-23T01:04:19.377Z,99762.91
2022-09-23T01:04:54.477Z,99765.59
2022-09-23T01:05:26.866Z,99766.41
2022-09-23T01:05:59.515Z,99773.66
2022-09-23T01:06:34.182Z,99766.41
2022-09-23T01:07:06.268Z,99763.72
2022-09-23T01:07:38.727Z,99767.19
2022-09-23T01:08:13.806Z,99772.56
2022-09-23T01:08:50.374Z,99766.41
2022-09-23T01:09:24.220Z,99762.91
2022-09-23T01:09:58.506Z,99768.00
2022-09-23T01:10:37.194Z,99759.66
2022-09-23T01:11:26.614Z,99767.19
2022-09-23T01:12:12.037Z,99766.66
2022-09-23T01:13:13.001Z,99766.66
2022-09-23T01:13:58.667Z,99766.38
2022-09-23T01:14:40.739Z,99761.00
2022-09-23T01:15:18.793Z,99762.34
2022-09-23T01:16:03.917Z,99764.78
2022-09-23T01:16:43.213Z,99764.78
2022-09-23T01:17:27.473Z,99762.88
2022-09-23T01:18:06.627Z,99770.69
2022-09-23T01:18:49.023Z,99761.00
2022-09-23T01:19:41.209Z,99761.00
2022-09-23T01:20:44.941Z,99763.16
2022-09-23T01:21:37.904Z,99765.03
2022-09-23T01:22:17.312Z,99762.34
2022-09-23T01:22:57.070Z,99759.66
2022-09-23T01:23:55.490Z,99765.03
2022-09-23T01:24:58.423Z,99766.91
2022-09-23T01:26:04.055Z,99758.84
2022-09-23T01:27:13.841Z,99758.56
2022-09-23T01:28:02.168Z,99764.50
2022-09-23T01:28:53.222Z,99764.22
2022-09-23T01:29:52.825Z,99765.03
2022-09-23T01:30:44.246Z,99761.53
2022-09-23T01:31:24.500Z,99769.34
2022-09-23T01:32:03.585Z,99765.84
2022-09-23T01:33:09.185Z,99764.22
2022-09-23T01:33:49.210Z,99766.13
2022-09-23T01:34:25.433Z,99766.38
2022-09-23T01:35:08.968Z,99771.75
2022-09-23T01:36:21.686Z,99770.13
2022-09-23T01:36:58.946Z,99769.31
2022-09-23T01:37:37.973Z,99766.38
2022-09-23T01:38:22.526Z,99763.16
2022-09-23T01:39:00.843Z,99762.34
2022-09-23T01:39:37.887Z,99762.34
2022-09-23T01:40:19.755Z,99763.41
2022-09-23T01:41:01.291Z,99766.09
2022-09-23T01:41:56.251Z,99762.06
2022-09-23T01:42:35.716Z,99761.81
2022-09-23T01:43:14.565Z,99764.47
2022-09-23T01:43:57.319Z,99762.88
2022-09-23T01:44:33.568Z,99760.72
2022-09-23T01:45:11.034Z,99758.03
2022-09-23T01:45:54.658Z,99762.06
2022-09-23T01:46:30.601Z,99759.38
2022-09-23T01:47:11.091Z,99759.13
2022-09-23T01:47:45.193Z,99757.50
2022-09-23T01:48:22.513Z,99759.09
2022-09-23T01:49:05.146Z,99758.56
2022-09-23T01:49:44.809Z,99761.00
2022-09-23T01:50:35.011Z,99764.50
2022-09-23T01:51:12.614Z,99754.81
2022-09-23T01:51:52.297Z,99763.44
2022-09-23T01:52:28.711Z,99753.47
2022-09-23T01:53:06.416Z,99755.06
2022-09-23T01:53:43.743Z,99762.06
2022-09-23T01:54:24.279Z,99754.81
2022-09-23T01:55:03.145Z,99748.38
2022-09-23T01:55:40.514Z,99759.94
2022-09-23T01:56:21.546Z,99753.19
2022-09-23T01:56:59.156Z,99765.28
2022-09-23T01:57:35.137Z,99756.41
2022-09-23T01:58:13.128Z,99749.97
2022-09-23T01:58:51.265Z,99751.59
2022-09-23T01:59:29.399Z,99758.84
2022-09-23T02:00:08.432Z,99751.03
2022-09-23T02:00:53.527Z,99748.63
2022-09-23T02:01:32.588Z,99747.00
2022-09-23T02:02:15.423Z,99751.31
2022-09-23T02:02:51.509Z,99751.03
2022-09-23T02:03:28.891Z,99756.16
2022-09-23T02:04:08.913Z,99746.22
2022-09-23T02:04:47.303Z,99754.81
2022-09-23T02:05:26.186Z,99750.22
2022-09-23T02:06:06.280Z,99748.91
2022-09-23T02:06:42.150Z,99752.41
2022-09-23T02:07:18.234Z,99752.13
2022-09-23T02:07:59.522Z,99752.94
2022-09-23T02:08:38.021Z,99753.19
2022-09-23T02:09:15.492Z,99751.31
2022-09-23T02:09:56.468Z,99752.13
2022-09-23T02:10:33.656Z,99752.13
2022-09-23T02:11:08.862Z,99746.22
2022-09-23T02:11:46.174Z,99756.69
2022-09-23T02:12:21.461Z,99755.38
2022-09-23T02:12:57.746Z,99753.19
2022-09-23T02:13:40.108Z,99755.63
2022-09-23T02:14:17.354Z,99751.06
2022-09-23T02:14:55.062Z,99748.09
2022-09-23T02:15:32.090Z,99753.47
2022-09-23T02:16:13.042Z,99749.44
2022-09-23T02:16:50.283Z,99750.53
2022-09-23T02:17:29.236Z,99754.81
2022-09-23T02:18:05.534Z,99750.53
2022-09-23T02:18:46.408Z,99750.25
2022-09-23T02:19:22.927Z,99761.81
2022-09-23T02:20:01.427Z,99754.53
2022-09-23T02:20:40.496Z,99749.16
2022-09-23T02:21:15.864Z,99751.59
2022-09-23T02:21:55.522Z,99753.22
2022-09-23T02:22:35.428Z,99753.22
2022-09-23T02:23:12.515Z,99748.66
2022-09-23T02:23:50.620Z,99752.16
2022-09-23T02:24:30.156Z,99745.66
2022-09-23T02:25:03.808Z,99748.91
2022-09-23T02:25:45.060Z,99752.16
2022-09-23T02:26:23.977Z,99747.53
2022-09-23T02:27:05.513Z,99753.22
2022-09-23T02:27:44.730Z,99754.81
2022-09-23T02:28:24.289Z,99754.00
2022-09-23T02:29:04.251Z,99753.22
2022-09-23T02:29:48.602Z,99745.16
2022-09-23T02:30:27.291Z,99737.09
2022-09-23T02:31:08.938Z,99744.59
2022-09-23T02:31:48.238Z,99739.47
2022-09-23T02:32:24.024Z,99744.88
2022-09-23T02:33:04.587Z,99748.38
2022-09-23T02:33:45.413Z,99744.88
2022-09-23T02:34:22.338Z,99740.56
2022-09-23T02:35:01.696Z,99741.09
2022-09-23T02:35:42.066Z,99745.66
2022-09-23T02:36:17.352Z,99747.84
2022-09-23T02:37:02.800Z,99750.53
2022-09-23T02:37:44.283Z,99741.91
2022-09-23T02:38:23.307Z,99742.97
2022-09-23T02:38:58.237Z,99747.84
2022-09-23T02:39:38.640Z,99741.38
2022-09-23T02:40:23.911Z,99741.66
2022-09-23T02:41:00.866Z,99743.78
2022-09-23T02:41:43.085Z,99736.53
2022-09-23T02:42:24.318Z,99743.81
2022-09-23T02:43:05.955Z,99738.69
2022-09-23T02:43:48.722Z,99744.06
2022-09-23T02:44:23.729Z,99740.00
2022-09-23T02:44:56.142Z,99733.06
2022-09-23T02:45:31.333Z,99734.63
2022-09-23T02:46:07.474Z,99733.84
2022-09-23T02:46:41.458Z,99749.69
2022-09-23T02:47:16.232Z,99741.63
2022-09-23T02:47:53.556Z,99742.44
2022-09-23T02:48:32.430Z,99735.19
2022-09-23T02:49:12.987Z,99745.69
2022-09-23T02:49:45.146Z,99737.88
2022-09-23T02:50:18.237Z,99739.75
2022-09-23T02:50:53.458Z,99748.63
2022-09-23T02:51:25.878Z,99744.06
2022-09-23T02:52:01.417Z,99748.63
2022-09-23T02:52:36.815Z,99755.09
2022-09-23T02:53:09.094Z,99748.91
2022-09-23T02:53:41.350Z,99749.44
2022-09-23T02:54:18.669Z,99746.50
2022-09-23T02:54:51.487Z,99741.38
2022-09-23T02:55:25.612Z,99745.69
2022-09-23T02:56:00.322Z,99751.88
2022-09-23T02:56:32.411Z,99750.25
2022-09-23T02:57:07.183Z,99744.88
2022-09-23T02:57:42.141Z,99747.00
2022-09-23T02:58:14.505Z,99741.94
2022-09-23T02:58:47.311Z,99754.00
2022-09-23T02:59:23.868Z,99753.75
2022-09-23T02:59:56.229Z,99747.56
2022-09-23T03:00:35.605Z,99747.81
2022-09-23T03:01:24.434Z,99748.91
2022-09-23T03:02:34.715Z,99745.69
2022-09-23T03:03:23.375Z,99739.22
2022-09-23T03:04:07.006Z,99741.38
2022-09-23T03:04:47.584Z,99742.44
2022-09-23T03:05:27.612Z,99747.56
2022-09-23T03:06:05.327Z,99738.69
2022-09-23T03:06:50.590Z,99741.09
2022-09-23T03:07:34.397Z,99736.53
2022-09-23T03:08:28.430Z,99741.09
2022-09-23T03:09:09.003Z,99742.72
2022-09-23T03:09:54.895Z,99743.25
2022-09-23T03:10:35.622Z,99746.75
2022-09-23T03:11:13.692Z,99741.63
2022-09-23T03:11:53.402Z,99740.31
2022-09-23T03:12:36.239Z,99745.69
2022-09-23T03:13:19.191Z,99740.31
2022-09-23T03:14:05.192Z,99749.44
2022-09-23T03:14:49.602Z,99753.75
2022-09-23T03:15:31.682Z,99753.75
2022-09-23T03:16:19.727Z,99746.75
2022-09-23T03:16:57.111Z,99746.19
2022-09-23T03:17:37.679Z,99747.00
2022-09-23T03:18:20.492Z,99743.50
2022-09-23T03:18:58.885Z,99745.41
2022-09-23T03:19:35.450Z,99745.41
2022-09-23T03:20:15.519Z,99753.19
2022-09-23T03:20:51.515Z,99751.59
2022-09-23T03:21:30.681Z,99745.41
2022-09-23T03:22:11.271Z,99743.00
2022-09-23T03:22:47.167Z,99747.56
2022-09-23T03:23:25.341Z,99744.06
2022-09-23T03:24:02.996Z,99741.13
2022-09-23T03:24:38.170Z,99738.69
2022-09-23T03:25:16.262Z,99735.47
2022-09-23T03:25:54.253Z,99745.13
2022-09-23T03:26:31.465Z,99750.25
2022-09-23T03:27:13.590Z,99745.69
2022-09-23T03:27:48.677Z,99753.75
2022-09-23T03:28:22.659Z,99748.91
2022-09-23T03:28:57.747Z,99748.91
2022-09-23T03:29:32.609Z,99743.25
2022-09-23T03:30:07.357Z,99745.94
2022-09-23T03:30:43.666Z,99750.25
2022-09-23T03:31:18.805Z,99749.44
2022-09-23T03:31:51.101Z,99747.56
2022-09-23T03:32:28.092Z,99754.56
2022-09-23T03:33:03.222Z,99751.31
2022-09-23T03:33:38.947Z,99756.69
2022-09-23T03:34:16.345Z,99748.63
2022-09-23T03:34:53.428Z,99749.44
2022-09-23T03:35:29.571Z,99758.03
2022-09-23T03:36:22.032Z,99752.13
2022-09-23T03:37:03.406Z,99756.97
2022-09-23T03:37:42.130Z,99755.06
2022-09-23T03:38:17.460Z,99746.50
2022-09-23T03:38:56.139Z,99747.81
2022-09-23T03:39:34.751Z,99755.88
2022-09-23T03:40:12.534Z,99747.28
2022-09-23T03:40:51.135Z,99751.59
2022-09-23T03:41:30.066Z,99755.09
2022-09-23T03:42:09.963Z,99752.41
2022-09-23T03:42:42.714Z,99754.00
2022-09-23T03:43:14.935Z,99754.56
2022-09-23T03:43:49.832Z,99746.22
2022-09-23T03:44:22.188Z,99752.69
2022-09-23T03:44:59.200Z,99749.69
2022-09-23T03:45:33.551Z,99750.50
2022-09-23T03:46:08.349Z,99750.50
2022-09-23T03:46:49.954Z,99756.44
2022-09-23T03:47:23.030Z,99745.94
2022-09-23T03:47:55.132Z,99747.56
2022-09-23T03:48:30.442Z,99745.69
2022-09-23T03:49:10.221Z,99754.28
2022-09-23T03:49:45.850Z,99747.28
2022-09-23T03:50:21.046Z,99748.38
2022-09-23T03:50:53.158Z,99751.06
2022-09-23T03:51:25.742Z,99750.25
2022-09-23T03:51:58.553Z,99750.78
2022-09-23T03:52:33.657Z,99747.28
2022-09-23T03:53:05.754Z,99743.78
2022-09-23T03:53:38.539Z,99751.59
2022-09-23T03:54:13.269Z,99749.69
2022-09-23T03:54:53.758Z,99750.00
2022-09-23T03:55:26.186Z,99748.38
2022-09-23T03:56:01.199Z,99751.06
2022-09-23T03:56:33.718Z,99747.28
2022-09-23T03:57:07.387Z,99741.91
2022-09-23T03:57:42.427Z,99746.22
2022-09-23T03:58:14.906Z,99748.91
2022-09-23T03:58:47.356Z,99748.09
2022-09-23T03:59:23.088Z,99753.19
2022-09-23T03:59:55.491Z,99749.69
2022-09-23T04:00:28.022Z,99743.53
2022-09-23T04:01:04.200Z,99749.69
2022-09-23T04:01:36.889Z,99749.19
2022-09-23T04:02:16.766Z,99745.69
2022-09-23T04:02:50.008Z,99748.63
2022-09-23T04:03:22.909Z,99749.97
2022-09-23T04:03:57.973Z,99752.41
2022-09-23T04:04:34.324Z,99749.72
2022-09-23T04:05:10.817Z,99744.59
2022-09-23T04:05:43.482Z,99749.16
2022-09-23T04:06:15.997Z,99748.09
2022-09-23T04:06:51.151Z,99749.16
2022-09-23T04:07:23.620Z,99745.41
2022-09-23T04:07:56.898Z,99748.63
2022-09-23T04:08:31.923Z,99757.50
2022-09-23T04:09:04.614Z,99750.25
2022-09-23T04:09:37.674Z,99756.69
2022-09-23T04:10:13.750Z,99755.63
2022-09-23T04:10:46.961Z,99754.53
2022-09-23T04:11:20.262Z,99753.47
2022-09-23T04:11:56.261Z,99754.28
2022-09-23T04:12:28.834Z,99759.66
2022-09-23T04:13:01.248Z,99763.94
2022-09-23T04:13:36.288Z,99757.78
2022-09-23T04:14:08.852Z,99761.25
2022-09-23T04:14:41.576Z,99756.69
2022-09-23T04:15:16.619Z,99756.69
2022-09-23T04:15:50.641Z,99752.94
2022-09-23T04:16:23.284Z,99757.25
2022-09-23T04:16:58.821Z,99759.66
2022-09-23T04:17:34.465Z,99755.34
2022-09-23T04:18:06.898Z,99755.63
2022-09-23T04:18:41.872Z,99751.31
2022-09-23T04:19:15.154Z,99759.13
2022-09-23T04:19:47.595Z,99761.81
2022-09-23T04:20:22.620Z,99761.25
2022-09-23T04:20:59.017Z,99766.63
2022-09-23T04:21:31.526Z,99759.66
2022-09-23T04:22:07.141Z,99757.50
2022-09-23T04:22:39.705Z,99752.94
2022-09-23T04:23:12.149Z,99766.13
2022-09-23T04:23:47.199Z,99758.84
2022-09-23T04:24:19.702Z,99757.50
2022-09-23T04:24:52.247Z,99762.88
2022-09-23T04:25:27.329Z,99765.56
2022-09-23T04:25:59.766Z,99758.31
2022-09-23T04:26:32.722Z,99763.41
2022-09-23T04:27:08.205Z,99763.41
2022-09-23T04:27:40.636Z,99759.94
2022-09-23T04:28:13.270Z,99761.28
2022-09-23T04:28:45.698Z,99767.47
2022-09-23T04:29:20.728Z,99767.47
2022-09-23T04:29:53.154Z,99764.50
2022-09-23T04:30:25.602Z,99764.50
2022-09-23T04:31:00.928Z,99756.44
2022-09-23T04:31:34.593Z,99758.31
2022-09-23T04:32:07.270Z,99759.13
2022-09-23T04:32:44.986Z,99767.22
2022-09-23T04:33:18.378Z,99757.50
2022-09-23T04:33:50.975Z,99754.81
2022-09-23T04:34:26.119Z,99756.44
2022-09-23T04:34:58.588Z,99752.13
2022-09-23T04:35:30.989Z,99756.44
2022-09-23T04:36:06.186Z,99756.44
2022-09-23T04:36:38.658Z,99762.34
2022-09-23T04:37:13.796Z,99755.09
2022-09-23T04:37:48.276Z,99756.72
2022-09-23T04:38:20.759Z,99765.59
2022-09-23T04:38:56.580Z,99757.53
2022-09-23T04:39:29.138Z,99762.63
2022-09-23T04:40:02.132Z,99756.97
2022-09-23T04:40:38.852Z,99755.91
2022-09-23T04:41:11.450Z,99753.22
2022-09-23T04:41:44.761Z,99756.72
2022-09-23T04:42:19.812Z,99758.03
2022-09-23T04:42:52.196Z,99755.91
2022-09-23T04:43:24.670Z,99748.38
2022-09-23T04:44:00.331Z,99759.66
2022-09-23T04:44:33.210Z,99763.16
2022-09-23T04:45:06.506Z,99764.50
2022-09-23T04:45:41.543Z,99756.97
2022-09-23T04:46:15.737Z,99754.81
2022-09-23T04:46:48.985Z,99758.06
2022-09-23T04:47:24.195Z,99759.38
2022-09-23T04:47:59.471Z,99757.75
2022-09-23T04:48:32.195Z,99764.22
2022-09-23T04:49:07.391Z,99753.19
2022-09-23T04:49:40.871Z,99762.88
2022-09-23T04:50:13.288Z,99759.94
2022-09-23T04:50:48.989Z,99765.03
2022-09-23T04:51:25.126Z,99765.56
2022-09-23T04:52:00.238Z,99762.88
2022-09-23T04:52:32.680Z,99761.78
2022-09-23T04:53:05.273Z,99762.59
2022-09-23T04:53:42.523Z,99765.81
2022-09-23T04:54:15.132Z,99770.13
2022-09-23T04:54:47.567Z,99767.16
2022-09-23T04:55:23.174Z,99770.66
2022-09-23T04:55:55.646Z,99760.69
2022-09-23T04:56:30.412Z,99772.03
2022-09-23T04:57:05.650Z,99767.44
2022-09-23T04:57:38.088Z,99756.69
2022-09-23T04:58:10.575Z,99759.09
2022-09-23T04:58:46.471Z,99763.66
2022-09-23T04:59:19.081Z,99758.56
2022-09-23T04:59:51.506Z,99764.75
2022-09-23T05:00:27.186Z,99760.44
2022-09-23T05:01:04.970Z,99764.22
2022-09-23T05:01:38.654Z,99756.69
2022-09-23T05:02:14.401Z,99754.81
2022-09-23T05:02:48.330Z,99763.13
2022-09-23T05:03:23.984Z,99763.13
2022-09-23T05:04:02.614Z,99758.00
2022-09-23T05:04:35.651Z,99756.69
2022-09-23T05:05:08.454Z,99760.19
2022-09-23T05:05:40.919Z,99757.75
2022-09-23T05:06:17.387Z,99762.06
2022-09-23T05:06:49.824Z,99757.25
2022-09-23T05:07:22.271Z,99758.03
2022-09-23T05:07:58.220Z,99758.03
2022-09-23T05:08:30.872Z,99756.44
2022-09-23T05:09:09.031Z,99765.03
2022-09-23T05:09:41.799Z,99759.38
2022-09-23T05:10:14.541Z,99754.81
2022-09-23T05:10:49.929Z,99756.41
2022-09-23T05:11:23.380Z,99764.47
2022-09-23T05:11:58.418Z,99756.41
2022-09-23T05:12:30.844Z,99761.78
2022-09-23T05:13:03.289Z,99757.22
2022-09-23T05:13:38.486Z,99764.47
2022-09-23T05:14:11.143Z,99758.31
2022-09-23T05:14:43.941Z,99758.00
2022-09-23T05:15:19.067Z,99758.00
2022-09-23T05:15:58.054Z,99760.72
2022-09-23T05:16:33.266Z,99748.31
2022-09-23T05:17:05.753Z,99760.72
2022-09-23T05:17:40.902Z,99764.75
2022-09-23T05:18:15.168Z,99766.34
2022-09-23T05:18:53.410Z,99755.31
2022-09-23T05:19:28.472Z,99760.69
2022-09-23T05:20:01.018Z,99756.41
2022-09-23T05:20:33.457Z,99758.00
2022-09-23T05:21:08.960Z,99762.84
2022-09-23T05:21:41.399Z,99765.53
2022-09-23T05:22:13.862Z,99763.38
2022-09-23T05:22:48.877Z,99761.25
2022-09-23T05:23:21.823Z,99755.88
2022-09-23T05:24:00.869Z,99758.56
2022-09-23T05:24:33.478Z,99759.34
2022-09-23T05:25:06.655Z,99753.44
2022-09-23T05:25:42.668Z,99755.88
2022-09-23T05:26:15.480Z,99756.94
2022-09-23T05:26:48.276Z,99761.50
2022-09-23T05:27:23.702Z,99754.25
2022-09-23T05:27:56.131Z,99753.94
2022-09-23T05:28:30.132Z,99756.66
2022-09-23T05:29:05.127Z,99757.19
2022-09-23T05:29:38.765Z,99758.00
2022-09-23T05:30:14.792Z,99757.44
2022-09-23T05:30:47.251Z,99752.38
2022-09-23T05:31:22.025Z,99761.25
2022-09-23T05:31:57.205Z,99752.38
2022-09-23T05:32:29.682Z,99752.63
2022-09-23T05:33:02.930Z,99754.25
2022-09-23T05:33:39.735Z,99762.84
2022-09-23T05:34:14.778Z,99752.38
2022-09-23T05:34:49.896Z,99757.75
2022-09-23T05:35:22.571Z,99754.50
2022-09-23T05:35:54.990Z,99751.56
2022-09-23T05:36:36.890Z,99756.13
2022-09-23T05:37:10.736Z,99752.38
2022-09-23T05:37:45.784Z,99756.94
2022-09-23T05:38:18.266Z,99758.28
2022-09-23T05:38:53.750Z,99757.75
2022-09-23T05:39:26.168Z,99764.47
2022-09-23T05:39:58.610Z,99758.03
2022-09-23T05:40:33.706Z,99758.56
2022-09-23T05:41:07.703Z,99763.94
2022-09-23T05:41:43.587Z,99759.38
2022-09-23T05:42:21.380Z,99755.88
2022-09-23T05:42:53.819Z,99756.13
2022-09-23T05:43:28.007Z,99758.06
2022-09-23T05:44:03.235Z,99756.44
2022-09-23T05:44:35.675Z,99759.94
2022-09-23T05:45:11.773Z,99765.03
2022-09-23T05:45:44.420Z,99760.75
2022-09-23T05:46:18.650Z,99756.13
2022-09-23T05:46:53.745Z,99762.63
2022-09-23T05:47:26.235Z,99758.06
2022-09-23T05:47:59.068Z,99764.22
2022-09-23T05:48:35.286Z,99760.19
2022-09-23T05:49:08.248Z,99769.34
2022-09-23T05:49:59.255Z,99757.50
2022-09-23T05:50:32.708Z,99753.75
2022-09-23T05:51:09.199Z,99758.84
2022-09-23T05:51:44.227Z,99762.34
2022-09-23T05:52:17.364Z,99755.88
2022-09-23T05:52:49.875Z,99760.19
2022-09-23T05:53:24.903Z,99757.25
2022-09-23T05:53:58.466Z,99759.13
2022-09-23T05:54:30.941Z,99765.03
2022-09-23T05:55:06.031Z,99756.44
2022-09-23T05:55:38.452Z,99759.38
2022-09-23T05:56:11.645Z,99765.03
2022-09-23T05:56:46.797Z,99756.13
2022-09-23T05:57:19.985Z,99761.53
2022-09-23T05:57:52.490Z,99761.81
2022-09-23T05:58:27.950Z,99740.81
2022-09-23T05:59:01.909Z,99756.13
2022-09-23T05:59:34.404Z,99768.53
2022-09-23T06:00:11.303Z,99756.94
2022-09-23T06:00:46.307Z,99755.06
2022-09-23T06:01:21.272Z,99760.72
2022-09-23T06:01:56.768Z,99760.72
2022-09-23T06:02:29.473Z,99757.75
2022-09-23T06:03:02.030Z,99766.38
2022-09-23T06:03:37.129Z,99756.41
2022-09-23T06:04:14.427Z,99760.72
2022-09-23T06:04:52.047Z,99768.53
2022-09-23T06:05:24.552Z,99766.34
2022-09-23T06:05:57.081Z,99760.69
2022-09-23T06:06:34.064Z,99760.44
2022-09-23T06:07:06.546Z,99751.28
2022-09-23T06:07:41.619Z,99763.66
2022-09-23T06:08:14.617Z,99758.28
2022-09-23T06:08:47.882Z,99766.88
2022-09-23T06:09:23.077Z,99768.22
2022-09-23T06:09:55.473Z,99766.63
2022-09-23T06:10:27.962Z,99765.53
2022-09-23T06:11:09.441Z,99766.34
2022-09-23T06:11:42.419Z,99763.94
2022-09-23T06:12:17.502Z,99766.34
2022-09-23T06:12:50.325Z,99764.47
2022-09-23T06:13:22.904Z,99766.88
2022-09-23T06:14:01.310Z,99768.22
2022-09-23T06:14:33.962Z,99767.41
2022-09-23T06:15:07.869Z,99769.56
2022-09-23T06:15:43.932Z,99758.25
2022-09-23T06:16:16.758Z,99769.81
2022-09-23T06:16:51.810Z,99769.53
2022-09-23T06:17:24.376Z,99763.88
2022-09-23T06:17:56.816Z,99767.38
2022-09-23T06:18:31.944Z,99769.00
2022-09-23T06:19:06.713Z,99774.41
2022-09-23T06:19:42.132Z,99774.09
2022-09-23T06:20:17.340Z,99767.66
2022-09-23T06:20:49.784Z,99775.72
2022-09-23T06:21:24.849Z,99771.16
2022-09-23T06:21:57.254Z,99774.66
2022-09-23T06:22:34.474Z,99775.19
2022-09-23T06:23:11.641Z,99772.50
2022-09-23T06:23:45.533Z,99773.28
2022-09-23T06:24:23.040Z,99772.50
2022-09-23T06:24:57.408Z,99776.28
2022-09-23T06:25:30.512Z,99775.47
2022-09-23T06:26:06.689Z,99777.06
2022-09-23T06:26:39.169Z,99775.47
2022-09-23T06:27:11.588Z,99773.28
2022-09-23T06:27:46.707Z,99776.53
2022-09-23T06:28:19.554Z,99778.16
2022-09-23T06:28:52.105Z,99783.53
2022-09-23T06:29:27.249Z,99776.25
2022-09-23T06:30:00.067Z,99782.72
2022-09-23T06:30:34.300Z,99769.00
2022-09-23T06:31:14.005Z,99778.66
2022-09-23T06:31:49.212Z,99780.53
2022-09-23T06:32:24.287Z,99775.16
2022-09-23T06:32:58.293Z,99768.69
2022-09-23T06:33:36.488Z,99774.91
2022-09-23T06:34:14.372Z,99773.00
2022-09-23T06:34:51.872Z,99771.94
2022-09-23T06:35:28.325Z,99772.75
2022-09-23T06:36:05.416Z,99778.13
2022-09-23T06:36:43.965Z,99776.50
2022-09-23T06:37:21.023Z,99778.41
2022-09-23T06:37:54.335Z,99778.66
2022-09-23T06:38:27.924Z,99768.69
2022-09-23T06:39:03.045Z,99766.00
2022-09-23T06:39:35.525Z,99776.25
2022-09-23T06:40:08.943Z,99778.41
2022-09-23T06:40:44.133Z,99774.66
2022-09-23T06:41:17.236Z,99775.19
2022-09-23T06:41:52.250Z,99773.59
2022-09-23T06:42:24.883Z,99769.53
2022-09-23T06:43:01.415Z,99771.16
2022-09-23T06:43:36.595Z,99788.38
2022-09-23T06:44:09.465Z,99771.16
2022-09-23T06:44:44.535Z,99773.59
2022-09-23T06:45:17.188Z,99773.59
2022-09-23T06:45:53.420Z,99778.41
2022-09-23T06:46:28.522Z,99775.72
2022-09-23T06:47:01.063Z,99770.34
2022-09-23T06:47:37.913Z,99770.06
2022-09-23T06:48:10.380Z,99771.97
2022-09-23T06:48:46.155Z,99779.78
2022-09-23T06:49:22.826Z,99772.50
2022-09-23T06:49:55.299Z,99773.03
2022-09-23T06:50:32.966Z,99773.03
2022-09-23T06:51:07.519Z,99773.28
2022-09-23T06:51:42.841Z,99774.63
2022-09-23T06:52:15.302Z,99770.31
2022-09-23T06:52:51.623Z,99772.75
2022-09-23T06:53:26.766Z,99776.25
2022-09-23T06:53:59.196Z,99771.94
2022-09-23T06:54:34.520Z,99777.34
2022-09-23T06:55:08.308Z,99769.25
2022-09-23T06:55:41.484Z,99777.06
2022-09-23T06:56:17.543Z,99776.25
2022-09-23T06:56:49.962Z,99778.94
2022-09-23T06:57:24.960Z,99772.19
2022-09-23T06:57:58.789Z,99782.72
2022-09-23T06:58:32.422Z,99783.22
2022-09-23T06:59:07.566Z,99776.75
2022-09-23T06:59:40.241Z,99783.22
2022-09-23T07:00:16.750Z,99785.09
2022-09-23T07:00:49.323Z,99773.75
2022-09-23T07:01:24.465Z,99774.03
2022-09-23T07:01:56.960Z,99774.28
2022-09-23T07:02:29.750Z,99774.53
2022-09-23T07:03:05.014Z,99776.66
2022-09-23T07:03:38.511Z,99771.28
2022-09-23T07:04:13.560Z,99760.47
2022-09-23T07:04:46.026Z,99777.44
2022-09-23T07:05:18.835Z,99778.03
2022-09-23T07:05:57.530Z,99773.69
2022-09-23T07:06:30.144Z,99770.69